»·PEaware :: TEXAN15 KRND-KRND

TEXAN15 :: KRND-KRND

FLIGHT INFORMATION

Flight Status: Arrived
Operator: Unknown
More flights by this operator :: More flights under this callsign
Pilot: Indie I. (23336)
Aircraft: BEECH AIRCRAFT T-6A TEXAN
(TEX2)
More flights by this aircraft type
Origin: KRND Randolph AFB
United States
Destination: KRND Randolph AFB
United States
More flights between these airports :: More routes between these airports
Route: PATTERNS
File this flight plan on PilotEdge
Remarks: +CW / N / A
Altitude:
(Current/Filed)
1,800ft
Speed:
(Current/Filed)
227kts
Departed: 18-Feb-20 12:24 PM
Arrived: 18-Feb-20 01:26 PM
Distance/Time
Traveled:
0nm/1:02
Distance/Time
To Go:
Arrived

Flight Plot

Page will automatically refresh every two minutes.

Flight plan parsing failed; only flown route is shown


Map Options




Map Legend


Flown Route
Filed Route
Departure Airport
Arrival Airport
Navaid (VOR, NDB)
Fix

Horizontal Profiles

Position Reports

Time Latitude Longitude Heading Altitude Ground
Speed
18-Feb-20 12:22 29.334725 -98.462221 104 1223ft 140kts
18-Feb-20 12:23 29.334622 -98.461773 104 1264ft 139kts
18-Feb-20 12:24 29.334622 -98.461773 104 1264ft 139kts
18-Feb-20 12:25 29.334622 -98.461773 104 1264ft 139kts
18-Feb-20 12:26 29.332119 -98.450559 104 1581ft 155kts
18-Feb-20 12:27 29.328816 -98.435462 104 1796ft 152kts
18-Feb-20 12:28 29.325926 -98.415870 94 2159ft 176kts
18-Feb-20 12:29 29.324011 -98.376781 77 2856ft 217kts
18-Feb-20 12:30 29.369045 -98.327797 34 3070ft 214kts
18-Feb-20 12:31 29.406328 -98.309315 13 2116ft 213kts
18-Feb-20 12:32 29.462350 -98.318731 341 1861ft 204kts
18-Feb-20 12:33 29.497170 -98.313769 145 2121ft 177kts
18-Feb-20 12:34 29.499991 -98.342176 316 2236ft 213kts
18-Feb-20 12:35 29.491876 -98.353778 75 1902ft 195kts
18-Feb-20 12:36 29.473586 -98.296415 147 1794ft 205kts
18-Feb-20 12:37 29.500035 -98.270602 332 1936ft 195kts
18-Feb-20 12:38 29.510167 -98.293471 150 1890ft 151kts
18-Feb-20 12:39 29.514528 -98.279895 329 793ft 116kts
18-Feb-20 12:40 29.545410 -98.302016 271 1341ft 193kts
18-Feb-20 12:41 29.507850 -98.317933 153 1910ft 193kts
18-Feb-20 12:42 29.471782 -98.281952 67 2003ft 186kts
18-Feb-20 12:43 29.511249 -98.277685 331 1977ft 192kts
18-Feb-20 12:44 29.530682 -98.317493 233 1859ft 196kts
18-Feb-20 12:45 29.484123 -98.302276 154 1913ft 194kts
18-Feb-20 12:46 29.488797 -98.263673 333 1917ft 185kts
18-Feb-20 12:47 29.517320 -98.296839 176 1783ft 162kts
18-Feb-20 12:48 29.506714 -98.274866 339 1067ft 131kts
18-Feb-20 12:49 29.539323 -98.295863 330 1326ft 190kts
18-Feb-20 12:50 29.512931 -98.323410 149 1894ft 198kts
18-Feb-20 12:51 29.469572 -98.288405 76 1779ft 200kts
18-Feb-20 12:52 29.507108 -98.274809 330 1924ft 194kts
18-Feb-20 12:53 29.502854 -98.289331 137 1814ft 108kts
18-Feb-20 12:54 29.523506 -98.285862 331 849ft 130kts
18-Feb-20 12:55 29.532117 -98.327026 228 1943ft 205kts
18-Feb-20 12:56 29.482328 -98.303081 151 1877ft 205kts
18-Feb-20 12:57 29.490240 -98.264044 330 1930ft 190kts
18-Feb-20 12:58 29.515430 -98.298029 164 1783ft 158kts
18-Feb-20 12:59 29.510329 -98.276637 324 894ft 117kts
18-Feb-20 13:00 29.538940 -98.295663 332 1293ft 170kts
18-Feb-20 13:01 29.516436 -98.325520 150 1865ft 187kts
18-Feb-20 13:02 29.470224 -98.293405 118 1815ft 201kts
18-Feb-20 13:03 29.502915 -98.272426 334 2737ft 153kts
18-Feb-20 13:04 29.520819 -98.300334 181 2544ft 121kts
18-Feb-20 13:05 29.517900 -98.281998 329 788ft 116kts
18-Feb-20 13:06 29.543702 -98.307853 239 1353ft 200kts
18-Feb-20 13:07 29.502561 -98.316411 152 1927ft 195kts
18-Feb-20 13:08 29.472092 -98.277533 70 1893ft 197kts
18-Feb-20 13:09 29.515448 -98.280328 330 1826ft 202kts
18-Feb-20 13:10 29.499077 -98.281352 78 1719ft 108kts
18-Feb-20 13:11 29.525440 -98.287003 329 901ft 122kts
18-Feb-20 13:12 29.516925 -98.296547 151 1998ft 142kts
18-Feb-20 13:13 29.513459 -98.279211 331 803ft 105kts
18-Feb-20 13:14 29.544353 -98.300974 304 1359ft 205kts
18-Feb-20 13:15 29.504939 -98.318700 150 1964ft 204kts
18-Feb-20 13:16 29.471405 -98.278036 68 1908ft 192kts
18-Feb-20 13:17 29.509806 -98.277092 328 3740ft 143kts
18-Feb-20 13:18 29.503084 -98.288565 138 2030ft 122kts
18-Feb-20 13:19 29.524665 -98.286584 327 845ft 123kts
18-Feb-20 13:20 29.529386 -98.329070 224 1875ft 213kts
18-Feb-20 13:21 29.480295 -98.300682 146 1835ft 207kts
18-Feb-20 13:22 29.493298 -98.265497 329 1717ft 203kts
18-Feb-20 13:23 29.513279 -98.295582 150 1771ft 154kts
18-Feb-20 13:24 29.514572 -98.279633 329 800ft 117kts
18-Feb-20 13:25 29.526251 -98.287053 12 765ft 9kts
18-Feb-20 13:26 29.527954 -98.286289 335 765ft 0kts
18-Feb-20 13:27 29.527956 -98.286290 335 765ft 0kts

Navigation Log

Ident Type
Flight plan parsing failed, navigation log unavailable